This is the latest recevied weather packets stored in our database for station/object YO8SHU-10. If no packets are shown the sender has not sent any weather packets the latest 10 day(s).
| Time | Temp. | Humidity | Pressure | Rain* | Wind** | Luminosity | Snow |
|---|---|---|---|---|---|---|---|
| 1778130044 | 17.22° C | 83% | 1021 hPa | - | - | - | - |
| 1778128244 | 17.22° C | 81% | 1020.9 hPa | - | - | - | - |
| 1778126444 | 16.67° C | 84% | 1020.6 hPa | - | - | - | - |
| 1778124644 | 13.89° C | 95% | 1020.3 hPa | - | - | - | - |
| 1778122844 | 11.11° C | 100% | 1020.2 hPa | - | - | - | - |
| 1778121044 | 11.11° C | 100% | 1020.2 hPa | - | - | - | - |
| 1778119244 | 11.11° C | 100% | 1020.2 hPa | - | - | - | - |
| 1778117444 | 11.67° C | 100% | 1020.1 hPa | - | - | - | - |
| 1778115643 | 12.22° C | 100% | 1020 hPa | - | - | - | - |
| 1778113843 | 12.22° C | 100% | 1020 hPa | - | - | - | - |
| 1778112043 | 12.78° C | 100% | 1019.9 hPa | - | - | - | - |
| 1778110243 | 12.78° C | 100% | 1020.1 hPa | - | - | - | - |
| 1778108443 | 13.33° C | 100% | 1020.1 hPa | - | - | - | - |
| 1778106643 | 13.33° C | 100% | 1020.1 hPa | - | - | - | - |
| 1778104843 | 14.44° C | 93% | 1020.1 hPa | - | - | - | - |
| 1778103043 | 15° C | 87% | 1020 hPa | - | - | - | - |
| 1778101243 | 15.56° C | 84% | 1020 hPa | - | - | - | - |
| 1778099442 | 16.11° C | 79% | 1019.7 hPa | - | - | - | - |
| 1778097642 | 16.67° C | 73% | 1019.4 hPa | - | - | - | - |
| 1778095842 | 17.22° C | 73% | 1019.5 hPa | - | - | - | - |
| 1778094042 | 18.33° C | 68% | 1019.2 hPa | - | - | - | - |
| 1778092242 | 18.89° C | 65% | 1018.7 hPa | - | - | - | - |
| 1778090442 | 19.44° C | 61% | 1018.4 hPa | - | - | - | - |
| 1778088642 | 20.56° C | 56% | 1018.2 hPa | - | - | - | - |
| 1778086842 | 23.33° C | 41% | 1018.1 hPa | - | - | - | - |
* Rain since midnight (hover to see other rain measurements)
** Current wind speed in m/s (hover to see current wind gust speed)